createdAt,value
2023-03-30T00:01:09.931Z,68.40
2023-03-30T00:03:39.409Z,68.40
2023-03-30T00:06:10.438Z,68.50
2023-03-30T00:08:39.097Z,68.40
2023-03-30T00:11:08.745Z,68.30
2023-03-30T00:13:38.309Z,68.40
2023-03-30T00:16:08.882Z,68.40
2023-03-30T00:18:39.320Z,68.30
2023-03-30T00:21:11.050Z,68.20
2023-03-30T00:23:39.968Z,68.00
2023-03-30T00:26:08.801Z,67.90
2023-03-30T00:28:36.970Z,67.80
2023-03-30T00:31:05.442Z,67.60
2023-03-30T00:33:44.687Z,67.50
2023-03-30T00:36:15.997Z,67.20
2023-03-30T00:38:45.435Z,67.10
2023-03-30T00:41:13.672Z,67.10
2023-03-30T00:43:59.237Z,66.90
2023-03-30T00:46:27.606Z,66.60
2023-03-30T00:48:58.182Z,66.40
2023-03-30T00:51:29.333Z,66.30
2023-03-30T00:54:03.668Z,66.30
2023-03-30T00:56:32.232Z,66.30
2023-03-30T00:59:02.814Z,66.30
2023-03-30T01:01:34.099Z,66.10
2023-03-30T01:04:03.642Z,66.00
2023-03-30T01:06:35.002Z,66.00
2023-03-30T01:09:03.955Z,65.90
2023-03-30T01:11:32.113Z,65.80
2023-03-30T01:14:03.963Z,65.50
2023-03-30T01:16:40.978Z,65.10
2023-03-30T01:19:29.531Z,64.80
2023-03-30T01:22:34.578Z,64.60
2023-03-30T01:25:30.093Z,64.10
2023-03-30T01:28:18.582Z,63.80
2023-03-30T01:31:05.299Z,63.50
2023-03-30T01:34:01.364Z,63.20
2023-03-30T01:37:02.516Z,62.90
2023-03-30T01:39:41.648Z,62.50
2023-03-30T01:42:20.140Z,62.30
2023-03-30T01:44:56.436Z,61.90
2023-03-30T01:47:30.045Z,61.60
2023-03-30T01:50:02.778Z,61.50
2023-03-30T01:52:38.435Z,61.20
2023-03-30T01:55:14.894Z,60.90
2023-03-30T01:57:47.411Z,60.50
2023-03-30T02:00:20.301Z,60.10
2023-03-30T02:02:52.599Z,59.80
2023-03-30T02:05:23.028Z,59.40
2023-03-30T02:07:56.040Z,59.00
2023-03-30T02:10:29.045Z,58.60
2023-03-30T02:12:59.676Z,58.30
2023-03-30T02:15:33.107Z,58.10
2023-03-30T02:18:01.739Z,57.70
2023-03-30T02:20:31.419Z,57.50
2023-03-30T02:22:59.700Z,57.20
2023-03-30T02:25:29.589Z,57.00
2023-03-30T02:27:57.842Z,56.70
2023-03-30T02:30:26.377Z,56.40
2023-03-30T02:32:57.230Z,56.20
2023-03-30T02:35:38.645Z,56.10
2023-03-30T02:38:36.271Z,55.70
2023-03-30T02:41:22.501Z,55.50
2023-03-30T02:44:01.356Z,55.50
2023-03-30T02:46:58.173Z,55.50
2023-03-30T02:49:35.799Z,55.30
2023-03-30T02:52:11.071Z,55.40
2023-03-30T02:54:48.228Z,55.30
2023-03-30T02:57:28.730Z,55.10
2023-03-30T03:00:01.883Z,55.00
2023-03-30T03:02:35.300Z,55.00
2023-03-30T03:05:04.504Z,54.90
2023-03-30T03:07:33.855Z,54.90
2023-03-30T03:10:02.270Z,54.80
2023-03-30T03:12:31.823Z,54.80
2023-03-30T03:15:02.668Z,54.90
2023-03-30T03:17:34.730Z,55.00
2023-03-30T03:20:04.068Z,55.00
2023-03-30T03:22:32.906Z,55.00
2023-03-30T03:25:02.516Z,55.00
2023-03-30T03:27:32.479Z,55.00
2023-03-30T03:30:00.641Z,55.00
2023-03-30T03:32:28.801Z,55.10
2023-03-30T03:34:57.040Z,55.30
2023-03-30T03:37:25.243Z,55.50
2023-03-30T03:39:53.403Z,55.60
2023-03-30T03:42:21.562Z,55.70
2023-03-30T03:44:51.087Z,55.90
2023-03-30T03:47:19.204Z,56.00
2023-03-30T03:49:47.349Z,56.10
2023-03-30T03:52:15.549Z,56.20
2023-03-30T03:54:43.739Z,56.40
2023-03-30T03:57:12.006Z,56.60
2023-03-30T03:59:40.369Z,56.80
2023-03-30T04:02:09.882Z,57.00
2023-03-30T04:04:38.107Z,57.20
2023-03-30T04:07:06.885Z,57.30
2023-03-30T04:09:35.052Z,57.60
2023-03-30T04:12:03.175Z,57.80
2023-03-30T04:14:31.297Z,58.10
2023-03-30T04:16:59.451Z,58.20
2023-03-30T04:19:31.502Z,58.50
2023-03-30T04:21:59.903Z,58.60
2023-03-30T04:24:29.687Z,58.70
2023-03-30T04:26:58.635Z,58.80
2023-03-30T04:29:26.760Z,59.00
2023-03-30T04:31:56.638Z,59.10
2023-03-30T04:34:26.736Z,59.20
2023-03-30T04:36:57.951Z,59.30
2023-03-30T04:39:30.273Z,59.30
2023-03-30T04:41:58.603Z,59.30
2023-03-30T04:44:26.962Z,59.30
2023-03-30T04:46:55.183Z,59.30
2023-03-30T04:49:23.719Z,59.30
2023-03-30T04:51:52.960Z,59.30
2023-03-30T04:54:22.701Z,59.30
2023-03-30T04:56:50.850Z,59.10
2023-03-30T04:59:19.178Z,59.10
2023-03-30T05:01:47.335Z,59.10
2023-03-30T05:04:15.637Z,59.10
2023-03-30T05:06:44.132Z,59.00
2023-03-30T05:09:12.356Z,59.00
2023-03-30T05:11:41.871Z,58.90
2023-03-30T05:14:10.035Z,58.90
2023-03-30T05:16:38.204Z,58.80
2023-03-30T05:19:06.438Z,58.80
2023-03-30T05:21:34.760Z,58.60
2023-03-30T05:24:03.038Z,58.60
2023-03-30T05:26:31.600Z,58.40
2023-03-30T05:29:01.284Z,58.30
2023-03-30T05:31:29.522Z,58.20
2023-03-30T05:33:57.756Z,58.20
2023-03-30T05:36:26.482Z,58.10
2023-03-30T05:38:54.620Z,58.00
2023-03-30T05:41:23.102Z,58.00
2023-03-30T05:43:51.458Z,57.90
2023-03-30T05:46:21.398Z,57.90
2023-03-30T05:48:50.074Z,57.70
2023-03-30T05:51:18.240Z,57.80
2023-03-30T05:53:46.353Z,57.90
2023-03-30T05:56:14.492Z,57.90
2023-03-30T05:58:42.755Z,57.80
2023-03-30T06:01:12.091Z,57.70
2023-03-30T06:03:42.139Z,57.70
2023-03-30T06:06:10.965Z,57.60
2023-03-30T06:08:39.314Z,57.60
2023-03-30T06:11:08.406Z,57.70
2023-03-30T06:13:36.613Z,57.60
2023-03-30T06:16:05.123Z,57.60
2023-03-30T06:18:33.394Z,57.80
2023-03-30T06:21:06.973Z,57.80
2023-03-30T06:23:35.836Z,57.80
2023-03-30T06:26:05.045Z,57.80
2023-03-30T06:28:33.309Z,57.80
2023-03-30T06:31:03.153Z,57.70
2023-03-30T06:33:31.584Z,57.70
2023-03-30T06:36:00.232Z,57.80
2023-03-30T06:38:30.099Z,58.40
2023-03-30T06:40:58.485Z,57.80
2023-03-30T06:43:27.235Z,57.80
2023-03-30T06:45:57.567Z,57.80
2023-03-30T06:48:26.709Z,57.90
2023-03-30T06:50:56.204Z,58.10
2023-03-30T06:53:25.749Z,58.10
2023-03-30T06:55:57.494Z,58.30
2023-03-30T06:58:27.730Z,58.40
2023-03-30T07:00:57.118Z,58.40
2023-03-30T07:03:26.680Z,58.50
2023-03-30T07:05:55.829Z,58.50
2023-03-30T07:08:24.651Z,58.60
2023-03-30T07:10:53.089Z,58.70
2023-03-30T07:13:22.872Z,58.70
2023-03-30T07:15:52.364Z,58.80
2023-03-30T07:18:21.053Z,58.70
2023-03-30T07:20:49.530Z,58.70
2023-03-30T07:23:18.651Z,58.60
2023-03-30T07:25:47.469Z,58.50
2023-03-30T07:28:16.352Z,58.40
2023-03-30T07:30:46.203Z,58.00
2023-03-30T07:33:15.715Z,57.70
2023-03-30T07:35:45.986Z,57.60
2023-03-30T07:38:15.040Z,57.30
2023-03-30T07:40:43.610Z,57.30
2023-03-30T07:43:12.200Z,57.10
2023-03-30T07:45:40.766Z,56.90
2023-03-30T07:48:10.701Z,56.90
2023-03-30T07:50:39.355Z,56.80
2023-03-30T07:53:08.232Z,56.80
2023-03-30T07:55:37.747Z,56.80
2023-03-30T07:58:07.867Z,56.70
2023-03-30T08:00:36.538Z,56.50
2023-03-30T08:03:05.298Z,56.30
2023-03-30T08:05:35.187Z,56.30
2023-03-30T08:08:03.763Z,56.20
2023-03-30T08:10:32.331Z,56.00
2023-03-30T08:13:01.167Z,55.80
2023-03-30T08:15:29.687Z,55.70
2023-03-30T08:17:58.918Z,55.70
2023-03-30T08:20:27.626Z,55.70
2023-03-30T08:22:57.289Z,55.60
2023-03-30T08:25:25.783Z,55.70
2023-03-30T08:27:54.198Z,55.70
2023-03-30T08:30:22.908Z,55.80
2023-03-30T08:32:53.785Z,55.80
2023-03-30T08:35:23.648Z,55.60
2023-03-30T08:37:52.490Z,55.70
2023-03-30T08:40:23.143Z,55.70
2023-03-30T08:43:18.861Z,55.70
2023-03-30T08:45:47.238Z,55.80
2023-03-30T08:48:19.453Z,55.90
2023-03-30T08:50:54.738Z,55.70
2023-03-30T08:53:23.283Z,55.40
2023-03-30T08:55:58.711Z,55.30
2023-03-30T08:58:35.535Z,55.20
2023-03-30T09:01:16.022Z,55.20
2023-03-30T09:03:55.840Z,55.10
2023-03-30T09:06:35.571Z,55.00
2023-03-30T09:09:04.104Z,54.90
2023-03-30T09:11:37.379Z,55.00
2023-03-30T09:14:11.336Z,55.70
2023-03-30T09:16:43.813Z,56.30
2023-03-30T09:19:18.887Z,56.80
2023-03-30T09:21:49.993Z,56.90
2023-03-30T09:24:25.648Z,57.10
2023-03-30T09:27:00.703Z,57.40
2023-03-30T09:29:32.444Z,57.50
2023-03-30T09:32:06.355Z,57.80
2023-03-30T09:34:41.733Z,59.40
2023-03-30T09:37:13.375Z,61.10
2023-03-30T09:39:42.280Z,62.60
2023-03-30T09:42:22.955Z,63.40
2023-03-30T09:44:53.939Z,64.20
2023-03-30T09:47:25.963Z,64.40
2023-03-30T09:49:58.826Z,64.30
2023-03-30T09:52:28.787Z,65.20
2023-03-30T09:54:57.383Z,66.70
2023-03-30T09:57:35.854Z,68.00
2023-03-30T10:00:25.831Z,68.90
2023-03-30T10:02:58.973Z,70.40
2023-03-30T10:05:40.286Z,70.90
2023-03-30T10:08:29.157Z,71.80
2023-03-30T10:11:06.214Z,72.90
2023-03-30T10:13:39.313Z,73.40
2023-03-30T10:16:10.188Z,74.40
2023-03-30T10:18:42.396Z,75.00
2023-03-30T10:21:22.765Z,75.90
2023-03-30T10:24:02.632Z,76.30
2023-03-30T10:26:34.624Z,77.10
2023-03-30T10:29:06.039Z,77.40
2023-03-30T10:31:37.893Z,77.80
2023-03-30T10:34:13.755Z,78.20
2023-03-30T10:36:42.516Z,78.30
2023-03-30T10:39:15.265Z,78.60
2023-03-30T10:41:44.618Z,78.90
2023-03-30T10:44:23.442Z,79.80
2023-03-30T10:46:54.785Z,79.80
2023-03-30T10:49:34.930Z,79.50
2023-03-30T10:52:13.516Z,79.10
2023-03-30T10:54:46.377Z,79.00
2023-03-30T10:57:17.079Z,79.00
2023-03-30T11:00:00.207Z,79.00
2023-03-30T11:02:53.615Z,79.10
2023-03-30T11:05:27.256Z,78.30
2023-03-30T11:08:02.055Z,79.10
2023-03-30T11:10:33.717Z,78.10
2023-03-30T11:13:06.316Z,77.70
2023-03-30T11:15:42.269Z,77.40
2023-03-30T11:18:18.295Z,77.10
2023-03-30T11:20:53.713Z,76.90
2023-03-30T11:23:31.483Z,76.40
2023-03-30T11:26:04.214Z,75.50
2023-03-30T11:28:49.047Z,74.90
2023-03-30T11:31:31.748Z,73.90
2023-03-30T11:34:04.684Z,73.30
2023-03-30T11:36:39.176Z,72.60
2023-03-30T11:39:28.985Z,72.00
2023-03-30T11:42:09.302Z,71.50
2023-03-30T11:44:38.219Z,71.20
2023-03-30T11:47:43.701Z,70.30
2023-03-30T11:50:29.879Z,69.30
2023-03-30T11:53:11.289Z,68.50
2023-03-30T11:55:52.430Z,67.70
2023-03-30T11:58:30.210Z,67.20
2023-03-30T12:01:24.452Z,66.70
2023-03-30T12:03:57.008Z,65.90
2023-03-30T12:06:32.509Z,65.30
2023-03-30T12:09:24.413Z,64.70
2023-03-30T12:11:57.259Z,64.10
2023-03-30T12:14:43.997Z,64.00
2023-03-30T12:17:38.556Z,63.50
2023-03-30T12:20:16.784Z,63.10
2023-03-30T12:22:53.601Z,62.50
2023-03-30T12:25:29.977Z,61.90
2023-03-30T12:28:03.661Z,61.80
2023-03-30T12:30:43.981Z,61.60
2023-03-30T12:33:14.222Z,61.10
2023-03-30T12:36:00.723Z,61.10
2023-03-30T12:38:39.425Z,61.00
2023-03-30T12:41:15.419Z,61.10
2023-03-30T12:44:20.059Z,61.40
2023-03-30T12:47:05.358Z,60.90
2023-03-30T12:49:47.182Z,60.80
2023-03-30T12:52:23.351Z,60.60
2023-03-30T12:55:18.849Z,60.30
2023-03-30T12:58:01.281Z,59.90
2023-03-30T13:00:56.956Z,59.80
2023-03-30T13:03:45.743Z,59.80
2023-03-30T13:06:24.834Z,59.80
2023-03-30T13:08:57.162Z,59.70
2023-03-30T13:11:27.162Z,59.60
2023-03-30T13:13:58.704Z,59.20
2023-03-30T13:17:06.353Z,59.30
2023-03-30T13:19:49.759Z,60.40
2023-03-30T13:22:29.256Z,62.00
2023-03-30T13:25:02.059Z,63.30
2023-03-30T13:27:35.450Z,64.50
2023-03-30T13:30:07.806Z,66.40
2023-03-30T13:32:57.759Z,67.80
2023-03-30T13:35:47.718Z,69.50
2023-03-30T13:38:49.720Z,70.10
2023-03-30T13:41:33.402Z,70.40
2023-03-30T13:44:16.781Z,70.60
2023-03-30T13:46:52.266Z,72.10
2023-03-30T13:49:36.761Z,73.60
2023-03-30T13:52:10.476Z,74.70
2023-03-30T13:54:41.833Z,75.70
2023-03-30T13:57:13.966Z,77.80
2023-03-30T13:59:48.201Z,79.30
2023-03-30T14:02:19.004Z,80.30
2023-03-30T14:04:49.159Z,80.50
2023-03-30T14:07:20.015Z,80.50
2023-03-30T14:10:05.092Z,80.20
2023-03-30T14:12:36.452Z,79.40
2023-03-30T14:15:18.200Z,79.30
2023-03-30T14:17:53.168Z,78.10
2023-03-30T14:20:41.516Z,77.20
2023-03-30T14:23:17.173Z,76.40
2023-03-30T14:25:47.138Z,75.90
2023-03-30T14:28:17.261Z,74.90
2023-03-30T14:30:55.606Z,73.10
2023-03-30T14:33:25.135Z,71.00
2023-03-30T14:35:56.722Z,70.40
2023-03-30T14:38:28.331Z,69.40
2023-03-30T14:40:57.708Z,67.50
2023-03-30T14:43:30.086Z,65.50
2023-03-30T14:46:05.244Z,63.60
2023-03-30T14:48:36.531Z,61.90
2023-03-30T14:51:09.627Z,62.20
2023-03-30T14:53:38.611Z,61.70
2023-03-30T14:56:08.881Z,60.00
2023-03-30T14:58:37.661Z,58.90
2023-03-30T15:01:12.487Z,58.00
2023-03-30T15:03:42.168Z,57.60
2023-03-30T15:06:16.389Z,57.20
2023-03-30T15:08:47.924Z,56.50
2023-03-30T15:11:21.093Z,55.80
2023-03-30T15:13:52.557Z,55.30
2023-03-30T15:16:24.687Z,55.10
2023-03-30T15:18:54.082Z,54.10
2023-03-30T15:21:23.160Z,54.00
2023-03-30T15:23:51.964Z,53.40
2023-03-30T15:26:21.256Z,53.10
2023-03-30T15:28:52.176Z,52.40
2023-03-30T15:31:22.797Z,51.80
2023-03-30T15:33:53.142Z,51.90
2023-03-30T15:36:24.305Z,52.00
2023-03-30T15:38:55.241Z,51.60
2023-03-30T15:41:26.964Z,50.90
2023-03-30T15:43:58.996Z,50.30
2023-03-30T15:46:31.618Z,49.70
2023-03-30T15:48:59.850Z,49.60
2023-03-30T15:51:33.117Z,48.90
2023-03-30T15:54:04.251Z,48.40
2023-03-30T15:56:38.048Z,48.30
2023-03-30T15:59:12.563Z,48.20
2023-03-30T16:01:45.086Z,48.30
2023-03-30T16:04:16.590Z,48.50
2023-03-30T16:06:47.324Z,48.50
2023-03-30T16:09:16.433Z,48.60
2023-03-30T16:11:45.842Z,48.60
2023-03-30T16:14:16.288Z,49.00
2023-03-30T16:16:46.122Z,49.30
2023-03-30T16:19:17.315Z,49.00
2023-03-30T16:21:45.794Z,49.00
2023-03-30T16:24:14.023Z,49.10
2023-03-30T16:26:42.284Z,49.50
2023-03-30T16:29:19.529Z,49.70
2023-03-30T16:31:49.224Z,49.90
2023-03-30T16:34:17.549Z,49.80
2023-03-30T16:36:45.813Z,49.80
2023-03-30T16:39:19.064Z,50.10
2023-03-30T16:41:48.289Z,50.10
2023-03-30T16:44:16.824Z,50.30
2023-03-30T16:46:45.377Z,50.40
2023-03-30T16:49:17.096Z,50.60
2023-03-30T16:51:46.321Z,51.20
2023-03-30T16:54:29.417Z,51.10
2023-03-30T16:56:59.392Z,51.30
2023-03-30T16:59:30.265Z,51.10
2023-03-30T17:01:59.572Z,50.80
2023-03-30T17:04:29.110Z,50.90
2023-03-30T17:06:58.284Z,51.10
2023-03-30T17:09:27.071Z,51.30
2023-03-30T17:11:55.306Z,51.50
2023-03-30T17:14:24.264Z,51.90
2023-03-30T17:16:52.496Z,52.20
2023-03-30T17:19:21.523Z,52.40
2023-03-30T17:21:51.186Z,52.40
2023-03-30T17:24:20.239Z,52.80
2023-03-30T17:26:48.548Z,53.00
2023-03-30T17:29:16.736Z,53.10
2023-03-30T17:31:46.101Z,53.40
2023-03-30T17:34:14.930Z,53.40
2023-03-30T17:36:43.294Z,53.70
2023-03-30T17:39:16.120Z,53.80
2023-03-30T17:41:44.269Z,54.00
2023-03-30T17:44:12.374Z,54.10
2023-03-30T17:46:42.887Z,54.20
2023-03-30T17:49:17.334Z,54.40
2023-03-30T17:51:45.574Z,54.50
2023-03-30T17:54:15.453Z,54.70
2023-03-30T17:56:44.133Z,54.90
2023-03-30T17:59:13.061Z,55.10
2023-03-30T18:01:41.383Z,55.20
2023-03-30T18:04:09.779Z,55.30
2023-03-30T18:06:38.295Z,55.50
2023-03-30T18:09:11.232Z,55.60
2023-03-30T18:11:40.829Z,55.70
2023-03-30T18:14:09.008Z,55.90
2023-03-30T18:16:40.365Z,55.90
2023-03-30T18:19:10.411Z,56.10
2023-03-30T18:21:38.653Z,56.20
2023-03-30T18:24:07.662Z,56.30
2023-03-30T18:26:36.030Z,56.50
2023-03-30T18:29:16.217Z,56.60
2023-03-30T18:31:44.702Z,56.60
2023-03-30T18:34:13.000Z,56.60
2023-03-30T18:36:41.261Z,56.50
2023-03-30T18:39:16.120Z,56.60
2023-03-30T18:41:44.257Z,56.70
2023-03-30T18:44:14.119Z,56.60
2023-03-30T18:46:42.381Z,56.70
2023-03-30T18:49:14.819Z,56.70
2023-03-30T18:51:43.143Z,56.80
2023-03-30T18:54:11.274Z,56.80
2023-03-30T18:56:39.493Z,56.80
2023-03-30T18:59:10.013Z,56.80
2023-03-30T19:01:40.212Z,56.90
2023-03-30T19:04:08.434Z,57.00
2023-03-30T19:06:37.584Z,57.10
2023-03-30T19:09:05.765Z,57.10
2023-03-30T19:11:34.488Z,57.20
2023-03-30T19:14:03.637Z,57.30
2023-03-30T19:16:32.071Z,57.30
2023-03-30T19:19:01.638Z,57.40
2023-03-30T19:21:30.119Z,57.70
2023-03-30T19:23:58.349Z,57.50
2023-03-30T19:26:27.213Z,57.70
2023-03-30T19:28:55.562Z,57.60
2023-03-30T19:31:23.770Z,57.70
2023-03-30T19:33:52.109Z,57.80
2023-03-30T19:36:25.205Z,58.00
2023-03-30T19:38:54.463Z,58.10
2023-03-30T19:41:22.757Z,58.20
2023-03-30T19:43:51.060Z,58.20
2023-03-30T19:46:19.468Z,58.40
2023-03-30T19:48:47.796Z,58.70
2023-03-30T19:51:16.666Z,58.90
2023-03-30T19:53:46.166Z,59.10
2023-03-30T19:56:15.982Z,59.50
2023-03-30T19:58:44.395Z,59.80
2023-03-30T20:01:13.483Z,60.20
2023-03-30T20:03:41.752Z,60.50
2023-03-30T20:06:11.018Z,60.60
2023-03-30T20:08:39.599Z,60.90
2023-03-30T20:11:09.693Z,61.10
2023-03-30T20:13:38.214Z,61.40
2023-03-30T20:16:10.680Z,61.70
2023-03-30T20:18:40.143Z,62.00
2023-03-30T20:21:08.402Z,62.00
2023-03-30T20:23:36.529Z,62.00
2023-03-30T20:26:04.780Z,62.10
2023-03-30T20:28:34.248Z,62.10
2023-03-30T20:31:02.763Z,62.90
2023-03-30T20:33:33.680Z,62.40
2023-03-30T20:36:02.103Z,62.40
2023-03-30T20:38:30.342Z,62.40
2023-03-30T20:41:00.596Z,62.60
2023-03-30T20:43:28.838Z,62.70
2023-03-30T20:46:02.914Z,62.80
2023-03-30T20:48:33.685Z,62.70
2023-03-30T20:51:03.713Z,62.70
2023-03-30T20:53:33.801Z,62.80
2023-03-30T20:56:03.391Z,62.90
2023-03-30T20:58:32.260Z,62.90
2023-03-30T21:01:10.783Z,63.00
2023-03-30T21:03:41.243Z,63.10
2023-03-30T21:06:09.691Z,63.20
2023-03-30T21:08:37.876Z,63.10
2023-03-30T21:11:06.928Z,63.20
2023-03-30T21:13:35.797Z,63.20
2023-03-30T21:16:07.865Z,63.10
2023-03-30T21:18:36.515Z,63.10
2023-03-30T21:21:05.975Z,63.10
2023-03-30T21:23:34.852Z,63.10
2023-03-30T21:26:05.996Z,63.00
2023-03-30T21:28:36.190Z,63.10
2023-03-30T21:31:09.143Z,63.00
2023-03-30T21:33:38.060Z,62.90
2023-03-30T21:36:07.599Z,62.80
2023-03-30T21:38:36.359Z,62.80
2023-03-30T21:41:07.390Z,62.80
2023-03-30T21:43:37.092Z,62.80
2023-03-30T21:46:08.409Z,62.70
2023-03-30T21:48:38.765Z,62.60
2023-03-30T21:51:13.583Z,62.70
2023-03-30T21:53:42.924Z,62.70
2023-03-30T21:56:12.154Z,62.70
2023-03-30T21:58:40.522Z,62.70
2023-03-30T22:01:12.620Z,62.80
2023-03-30T22:03:41.669Z,62.80
2023-03-30T22:06:12.938Z,63.00
2023-03-30T22:08:41.150Z,63.00
2023-03-30T22:11:11.980Z,62.90
2023-03-30T22:13:40.285Z,62.90
2023-03-30T22:16:13.556Z,62.90
2023-03-30T22:18:42.310Z,62.80
2023-03-30T22:21:14.282Z,62.70
2023-03-30T22:23:42.429Z,62.80
2023-03-30T22:26:11.525Z,62.70
2023-03-30T22:28:39.881Z,62.60
2023-03-30T22:31:10.397Z,62.70
2023-03-30T22:33:38.799Z,62.70
2023-03-30T22:36:15.224Z,62.70
2023-03-30T22:38:43.542Z,62.60
2023-03-30T22:41:11.672Z,62.50
2023-03-30T22:43:39.789Z,62.60
2023-03-30T22:46:10.035Z,62.60
2023-03-30T22:48:41.399Z,62.70
2023-03-30T22:51:14.007Z,62.70
2023-03-30T22:53:42.402Z,62.70
2023-03-30T22:56:11.540Z,62.70
2023-03-30T22:58:39.689Z,62.60
2023-03-30T23:01:10.303Z,62.80
2023-03-30T23:03:39.340Z,62.70
2023-03-30T23:06:09.289Z,62.80
2023-03-30T23:08:39.014Z,62.80
2023-03-30T23:11:08.149Z,62.80
2023-03-30T23:13:38.014Z,62.80
2023-03-30T23:16:08.117Z,62.90
2023-03-30T23:18:38.166Z,63.00
2023-03-30T23:21:07.456Z,63.00
2023-03-30T23:23:36.561Z,62.80
2023-03-30T23:26:09.015Z,62.80
2023-03-30T23:28:39.392Z,62.90
2023-03-30T23:31:08.733Z,62.80
2023-03-30T23:33:38.269Z,62.90
2023-03-30T23:36:07.551Z,62.80
2023-03-30T23:38:37.220Z,62.90
2023-03-30T23:41:06.016Z,62.90
2023-03-30T23:43:34.188Z,62.90
2023-03-30T23:46:02.394Z,62.90
2023-03-30T23:48:30.631Z,63.00
2023-03-30T23:51:00.303Z,63.10
2023-03-30T23:53:28.438Z,63.00
2023-03-30T23:55:58.154Z,63.20
2023-03-30T23:58:26.922Z,63.10
